Time;durP1;ratioP1;P1;durP2;ratioP2;P2;SDS_P1;SDS_P2;PMS_P1;PMS_P2;Temp;Humidity;BMP_temperature;BMP_pressure;BME280_temperature;BME280_humidity;BME280_pressure;Samples;Min_cycle;Max_cycle;Signal;HPM_P1;HPM_P2
2021/12/23 00:01:41;;;;;;;27.95;11.30;;;;;;;-0.65;100.00;101297.84;5070400;28;20040;-76
2021/12/23 00:04:12;;;;;;;22.05;11.35;;;;;;;-0.87;100.00;101258.78;5069081;28;20024;-76
2021/12/23 00:06:39;;;;;;;24.08;11.23;;;;;;;-1.05;100.00;101249.00;5084777;28;20040;-75
2021/12/23 00:09:07;;;;;;;22.35;10.68;;;;;;;-0.64;100.00;101288.31;5082881;28;20024;-75
2021/12/23 00:11:33;;;;;;;22.77;11.23;;;;;;;-0.58;100.00;101243.19;5050191;28;20029;-76
2021/12/23 00:14:03;;;;;;;22.52;10.35;;;;;;;-0.77;100.00;101261.94;5054180;28;20021;-76
2021/12/23 00:16:48;;;;;;;22.92;11.23;;;;;;;-1.29;100.00;101268.75;5049923;28;20025;-76
2021/12/23 00:24:42;;;;;;;24.23;10.90;;;;;;;-1.29;100.00;101287.75;4999183;28;20037;-75
2021/12/23 00:27:09;;;;;;;22.58;10.43;;;;;;;-1.24;100.00;101248.75;4998727;28;20034;-76
2021/12/23 00:29:41;;;;;;;23.33;10.65;;;;;;;-0.47;100.00;101274.81;5041745;23;20049;-77
2021/12/23 00:32:08;;;;;;;22.48;10.70;;;;;;;-0.96;100.00;101247.88;5043730;28;20060;-77
2021/12/23 00:34:38;;;;;;;24.83;11.00;;;;;;;-1.31;100.00;101159.97;5041512;28;20473;-77
2021/12/23 00:37:08;;;;;;;23.25;10.70;;;;;;;-0.99;100.00;101214.28;5060028;28;20526;-77
2021/12/23 00:39:36;;;;;;;23.52;10.88;;;;;;;-0.82;100.00;101281.97;5042151;28;20025;-75
2021/12/23 00:42:06;;;;;;;24.35;11.15;;;;;;;-0.85;100.00;101316.63;5041828;28;20025;-76
2021/12/23 00:44:36;;;;;;;23.25;11.52;;;;;;;-1.32;100.00;101248.13;5024315;28;20074;-76
2021/12/23 00:47:03;;;;;;;23.67;11.45;;;;;;;-1.39;100.00;101247.44;5007968;28;20083;-76
2021/12/23 00:49:29;;;;;;;24.23;11.88;;;;;;;-1.94;100.00;101142.94;5041364;28;20025;-77
2021/12/23 00:51:56;;;;;;;22.65;11.20;;;;;;;-1.32;100.00;101183.34;5024832;28;20123;-77
2021/12/23 00:54:22;;;;;;;27.27;11.60;;;;;;;-1.05;100.00;101244.66;5042954;28;20028;-77
2021/12/23 00:56:50;;;;;;;25.45;11.35;;;;;;;-0.92;100.00;101228.72;5058701;28;20108;-77
2021/12/23 00:59:18;;;;;;;28.08;12.95;;;;;;;-1.21;100.00;101224.47;5041932;28;20035;-77
2021/12/23 01:01:46;;;;;;;24.40;11.02;;;;;;;-2.14;100.00;101096.94;5059819;28;20083;-78
2021/12/23 01:04:16;;;;;;;21.75;10.75;;;;;;;-0.69;100.00;101231.41;5061978;28;20079;-77
2021/12/23 01:06:45;;;;;;;24.88;11.20;;;;;;;-1.69;100.00;101055.00;5052253;28;20044;-77
2021/12/23 01:09:17;;;;;;;28.95;11.88;;;;;;;-1.08;100.00;101225.78;5062842;28;20406;-78
2021/12/23 01:11:54;;;;;;;27.60;12.27;;;;;;;-2.08;100.00;101032.09;5035023;28;20039;-77
2021/12/23 01:14:28;;;;;;;25.25;11.73;;;;;;;-1.11;100.00;101122.22;5034991;28;20100;-77
2021/12/23 01:17:23;;;;;;;23.90;11.10;;;;;;;-0.86;100.00;101182.72;5552022;22;20080;-77
2021/12/23 01:19:55;;;;;;;28.77;12.05;;;;;;;-2.25;100.00;100977.41;5045286;28;20076;-76
2021/12/23 01:22:31;;;;;;;24.13;11.68;;;;;;;-1.32;100.00;101116.84;5047105;28;20030;-78
2021/12/23 01:24:59;;;;;;;25.02;11.88;;;;;;;-1.00;100.00;101176.28;5012780;28;20376;-77
2021/12/23 01:27:26;;;;;;;25.25;11.98;;;;;;;-1.88;100.00;101057.34;5030841;28;20117;-78
2021/12/23 01:30:11;;;;;;;24.52;11.75;;;;;;;-1.71;100.00;101061.97;5031534;28;20063;-78
2021/12/23 01:32:40;;;;;;;24.77;11.90;;;;;;;-1.04;100.00;101167.78;5029377;28;20046;-77
2021/12/23 01:35:14;;;;;;;27.08;12.52;;;;;;;-2.37;100.00;101009.69;5031825;28;20033;-77
2021/12/23 01:37:49;;;;;;;24.25;11.60;;;;;;;-1.20;100.00;101149.28;5033041;28;20085;-78
2021/12/23 01:40:18;;;;;;;23.83;11.73;;;;;;;-1.74;100.00;101065.53;5031052;28;20052;-78
2021/12/23 01:42:46;;;;;;;23.13;11.73;;;;;;;-1.17;100.00;101175.09;5044172;28;20037;-78
2021/12/23 01:45:16;;;;;;;29.20;11.98;;;;;;;-1.00;100.00;101158.13;5043106;28;20032;-77
2021/12/23 01:47:43;;;;;;;32.38;13.30;;;;;;;-1.01;100.00;101151.28;5037844;28;20030;-76
2021/12/23 01:50:12;;;;;;;39.10;13.43;;;;;;;-1.51;100.00;101113.16;5036879;28;20530;-77
2021/12/23 01:52:39;;;;;;;29.08;12.68;;;;;;;-1.74;100.00;101095.75;5003875;28;20040;-77
2021/12/23 01:55:06;;;;;;;27.13;11.95;;;;;;;-1.89;100.00;101079.78;5024389;28;20049;-76
2021/12/23 01:57:33;;;;;;;25.42;12.20;;;;;;;-1.63;100.00;101129.09;5042305;28;20026;-76
2021/12/23 02:00:00;;;;;;;31.70;13.25;;;;;;;-1.46;100.00;101144.91;5025619;28;20022;-76
2021/12/23 02:02:27;;;;;;;26.25;12.50;;;;;;;-1.64;100.00;101129.97;5022461;28;20371;-77
2021/12/23 02:04:53;;;;;;;25.55;12.30;;;;;;;-2.82;100.00;100948.94;5028448;28;20057;-77
2021/12/23 02:07:19;;;;;;;27.98;11.88;;;;;;;-1.49;100.00;101138.09;5033976;28;20024;-78
2021/12/23 02:09:45;;;;;;;26.35;12.90;;;;;;;-1.63;100.00;101129.91;5009116;28;20079;-77
2021/12/23 02:12:12;;;;;;;30.35;14.35;;;;;;;-1.96;100.00;101080.84;5023142;28;20014;-77
2021/12/23 02:14:38;;;;;;;30.90;12.90;;;;;;;-1.68;100.00;101124.03;5004658;28;20021;-76
2021/12/23 02:17:04;;;;;;;29.40;12.80;;;;;;;-1.41;100.00;101118.88;5004267;28;20123;-77
2021/12/23 02:19:31;;;;;;;30.58;12.90;;;;;;;-1.31;100.00;101078.84;5037770;28;20042;-77
2021/12/23 02:21:58;;;;;;;26.25;12.38;;;;;;;-1.66;100.00;101044.53;5038074;28;20502;-77
2021/12/23 02:24:24;;;;;;;28.08;12.23;;;;;;;-1.67;100.00;101053.22;5037456;28;20100;-76
2021/12/23 02:26:50;;;;;;;24.83;12.57;;;;;;;-0.85;100.00;101129.09;5039284;28;20034;-77
2021/12/23 02:29:21;;;;;;;26.15;12.15;;;;;;;-1.22;100.00;101106.19;5023600;28;20045;-77
2021/12/23 02:31:48;;;;;;;28.48;13.27;;;;;;;-0.89;100.00;101104.19;5024469;28;20033;-76
2021/12/23 02:34:15;;;;;;;29.90;13.27;;;;;;;-1.11;100.00;101107.50;5032214;28;20071;-77
2021/12/23 02:36:41;;;;;;;29.02;13.13;;;;;;;-1.18;100.00;101099.97;5026233;28;20060;-76
2021/12/23 02:39:07;;;;;;;28.23;13.07;;;;;;;-1.37;100.00;101121.31;5036878;28;20017;-77
2021/12/23 02:41:33;;;;;;;29.40;13.07;;;;;;;-2.06;100.00;100995.81;5004365;28;20117;-76
2021/12/23 02:44:00;;;;;;;30.95;12.77;;;;;;;-1.71;100.00;101043.84;5042979;28;20033;-77
2021/12/23 02:46:28;;;;;;;28.95;13.27;;;;;;;-1.07;100.00;101098.75;5026733;28;20036;-76
2021/12/23 02:49:14;;;;;;;28.42;12.65;;;;;;;-1.68;100.00;101092.97;5029415;28;20079;-77
2021/12/23 02:51:44;;;;;;;31.05;15.00;;;;;;;-1.67;100.00;101084.28;5040846;28;20026;-77
2021/12/23 02:54:12;;;;;;;29.35;13.25;;;;;;;-1.50;100.00;101052.66;5039229;28;20112;-77
2021/12/23 02:56:41;;;;;;;28.55;12.55;;;;;;;-1.76;100.00;100949.97;5020666;28;20032;-76
2021/12/23 02:59:06;;;;;;;29.08;12.73;;;;;;;-1.95;100.00;100986.81;5004124;28;20085;-77
2021/12/23 03:01:33;;;;;;;26.88;13.13;;;;;;;-2.87;100.00;100867.28;5006729;28;20029;-77
2021/12/23 03:03:59;;;;;;;29.85;13.52;;;;;;;-1.44;100.00;101012.78;5025369;28;20419;-77
2021/12/23 03:06:25;;;;;;;30.38;13.10;;;;;;;-2.57;100.00;100899.09;5039796;28;20356;-77
2021/12/23 03:08:59;;;;;;;27.65;12.45;;;;;;;-1.74;100.00;100955.94;5022186;28;20025;-76
2021/12/23 03:11:27;;;;;;;26.85;12.43;;;;;;;-2.21;100.00;100889.31;5023279;28;20029;-77
2021/12/23 03:13:54;;;;;;;31.45;14.10;;;;;;;-1.65;100.00;101028.13;5036636;28;20028;-77
2021/12/23 03:16:31;;;;;;;28.73;13.35;;;;;;;-2.06;100.00;100998.41;5052467;28;20503;-75
2021/12/23 03:18:59;;;;;;;28.90;13.38;;;;;;;-2.78;100.00;100860.06;5029976;28;20042;-77
2021/12/23 03:21:26;;;;;;;27.88;13.77;;;;;;;-2.02;100.00;100985.31;5041578;28;20041;-77
2021/12/23 03:23:55;;;;;;;33.47;14.23;;;;;;;-2.17;100.00;100937.47;4993821;28;20081;-77
2021/12/23 03:26:24;;;;;;;30.42;14.48;;;;;;;-2.04;100.00;100981.94;5009857;28;20028;-77
2021/12/23 03:28:50;;;;;;;28.90;13.95;;;;;;;-2.10;100.00;100970.00;5047259;28;20029;-76
2021/12/23 03:31:15;;;;;;;33.88;14.68;;;;;;;-2.13;100.00;100987.41;5026492;28;20108;-76
2021/12/23 03:33:44;;;;;;;29.50;14.25;;;;;;;-1.97;100.00;101022.25;5045054;28;20034;-77
2021/12/23 03:36:10;;;;;;;34.78;14.05;;;;;;;-1.44;100.00;101034.34;5040320;28;20034;-76
2021/12/23 03:38:37;;;;;;;32.72;14.70;;;;;;;-1.30;100.00;101063.22;5024181;28;20032;-77
2021/12/23 03:41:11;;;;;;;31.00;14.25;;;;;;;-1.72;100.00;101068.06;5025211;28;20034;-78
2021/12/23 03:43:37;;;;;;;28.70;14.05;;;;;;;-2.53;100.00;100944.63;5038693;28;20052;-76
2021/12/23 03:46:03;;;;;;;31.83;13.98;;;;;;;-2.00;100.00;101026.66;5018695;28;20056;-77
2021/12/23 03:48:29;;;;;;;30.70;14.38;;;;;;;-2.36;100.00;101016.56;5003334;28;20451;-77
2021/12/23 03:50:55;;;;;;;32.15;15.27;;;;;;;-2.08;100.00;101039.84;5018205;28;20026;-77
2021/12/23 03:53:20;;;;;;;30.75;14.00;;;;;;;-2.13;100.00;101047.75;5018757;28;20037;-76
2021/12/23 03:55:46;;;;;;;29.45;13.85;;;;;;;-1.96;100.00;101067.91;5018814;28;20460;-77
2021/12/23 03:58:13;;;;;;;34.80;15.38;;;;;;;-2.04;100.00;101061.28;5026538;28;20052;-77
2021/12/23 04:00:48;;;;;;;36.50;16.60;;;;;;;-2.76;100.00;100946.16;5053121;28;20148;-76
2021/12/23 04:03:14;;;;;;;40.25;17.10;;;;;;;-2.14;100.00;101040.84;5041818;28;20024;-76
2021/12/23 04:05:40;;;;;;;37.45;17.17;;;;;;;-2.54;100.00;101023.13;5059454;28;20025;-76
2021/12/23 04:08:06;;;;;;;41.05;18.15;;;;;;;-3.13;100.00;100866.31;5075152;28;20024;-78
2021/12/23 04:10:33;;;;;;;38.08;15.90;;;;;;;-3.28;100.00;100844.34;5075251;28;20047;-78
2021/12/23 04:12:59;;;;;;;38.10;17.88;;;;;;;-2.20;100.00;101025.53;5058722;28;20448;-78
2021/12/23 04:15:25;;;;;;;37.92;17.70;;;;;;;-2.74;100.00;100938.38;5058674;28;20032;-79
2021/12/23 04:17:54;;;;;;;39.95;17.95;;;;;;;-2.33;100.00;101006.09;5057115;28;20045;-77
2021/12/23 04:20:23;;;;;;;41.08;17.13;;;;;;;-2.27;100.00;100982.66;5042198;28;20039;-77
2021/12/23 04:22:53;;;;;;;41.95;18.05;;;;;;;-2.37;100.00;100992.41;5057302;28;20032;-78
2021/12/23 04:25:20;;;;;;;42.47;19.23;;;;;;;-2.22;100.00;101036.84;5056367;28;20106;-77
2021/12/23 04:27:48;;;;;;;42.53;17.42;;;;;;;-2.45;100.00;101014.22;5074689;28;20063;-77
2021/12/23 04:30:16;;;;;;;42.85;17.45;;;;;;;-3.48;100.00;100855.25;5040677;28;20060;-77
2021/12/23 04:32:42;;;;;;;41.05;17.48;;;;;;;-3.24;100.00;100866.63;5061401;28;20021;-77
2021/12/23 04:35:08;;;;;;;40.65;18.13;;;;;;;-3.09;100.00;100916.13;5080147;28;20055;-77
2021/12/23 04:37:35;;;;;;;40.95;17.80;;;;;;;-2.70;100.00;100965.84;5062719;28;20036;-77
2021/12/23 04:40:22;;;;;;;42.05;18.42;;;;;;;-2.31;100.00;101005.16;5031696;28;20028;-78
2021/12/23 04:42:53;;;;;;;43.63;19.30;;;;;;;-2.40;100.00;101002.03;5077722;28;20017;-77
2021/12/23 04:45:25;;;;;;;42.67;20.05;;;;;;;-2.48;100.00;101001.38;5094607;28;20040;-78
2021/12/23 04:47:51;;;;;;;45.22;19.67;;;;;;;-4.06;100.00;100775.13;5068010;28;20021;-77
2021/12/23 04:50:20;;;;;;;44.70;20.05;;;;;;;-2.54;100.00;100981.75;5063134;28;20070;-79
2021/12/23 04:52:47;;;;;;;47.75;20.92;;;;;;;-2.25;100.00;101023.97;5068239;28;20033;-78
2021/12/23 04:55:16;;;;;;;49.80;20.23;;;;;;;-2.70;100.00;100898.63;5049740;28;20032;-78
2021/12/23 04:57:44;;;;;;;48.92;19.75;;;;;;;-2.23;100.00;101012.69;5045588;28;20033;-78
2021/12/23 05:00:21;;;;;;;44.70;20.77;;;;;;;-2.56;100.00;100924.06;5080487;28;20107;-79
2021/12/23 05:02:47;;;;;;;50.50;20.92;;;;;;;-2.45;100.00;100928.88;5063196;28;20029;-79
2021/12/23 05:05:18;;;;;;;48.55;21.50;;;;;;;-2.02;100.00;100982.72;5049956;28;20106;-79
2021/12/23 05:07:48;;;;;;;54.28;21.63;;;;;;;-1.82;100.00;100983.81;5053206;28;20017;-79
2021/12/23 05:10:16;;;;;;;46.72;21.23;;;;;;;-1.75;100.00;100982.72;5074882;28;20085;-78
2021/12/23 05:12:44;;;;;;;54.83;21.73;;;;;;;-1.90;100.00;100958.19;5084888;28;20028;-78
2021/12/23 05:15:17;;;;;;;54.05;21.40;;;;;;;-2.18;100.00;100886.66;5061327;28;20036;-78
2021/12/23 05:17:43;;;;;;;54.70;23.52;;;;;;;-2.78;100.00;100774.78;5061536;28;20043;-78
2021/12/23 05:20:15;;;;;;;54.30;23.38;;;;;;;-1.99;100.00;100937.78;5051064;28;20380;-78
2021/12/23 05:22:43;;;;;;;56.55;24.13;;;;;;;-2.54;100.00;100848.13;5063498;28;20021;-78
2021/12/23 05:25:09;;;;;;;59.50;24.50;;;;;;;-2.52;100.00;100856.69;5059223;28;20111;-78
2021/12/23 05:27:37;;;;;;;65.32;24.80;;;;;;;-1.91;100.00;100936.66;5050021;28;20040;-78
2021/12/23 05:30:09;;;;;;;63.45;25.08;;;;;;;-2.29;100.00;100846.47;5032941;28;20032;-78
2021/12/23 05:32:35;;;;;;;63.05;24.70;;;;;;;-2.19;100.00;100822.84;5026612;28;20360;-79
2021/12/23 05:35:08;;;;;;;64.90;25.35;;;;;;;-1.92;100.00;100934.09;5017608;28;20110;-78
2021/12/23 05:37:37;;;;;;;63.83;25.67;;;;;;;-2.97;100.00;100766.78;5026987;28;20028;-79
2021/12/23 05:40:05;;;;;;;70.88;25.85;;;;;;;-2.58;100.00;100884.47;5029923;28;20021;-78
2021/12/23 05:42:31;;;;;;;67.50;24.60;;;;;;;-3.29;100.00;100759.16;5050923;28;20380;-77
2021/12/23 05:44:57;;;;;;;68.68;26.25;;;;;;;-2.14;100.00;100910.66;5031360;28;20024;-78
2021/12/23 05:47:24;;;;;;;62.08;24.63;;;;;;;-2.21;100.00;100927.28;5043070;28;20077;-77
2021/12/23 05:49:50;;;;;;;67.25;25.25;;;;;;;-3.31;100.00;100761.81;5023586;28;20056;-78
2021/12/23 05:52:17;;;;;;;64.95;25.58;;;;;;;-2.10;100.00;100902.75;5041519;28;20029;-78
2021/12/23 05:54:42;;;;;;;68.65;26.65;;;;;;;-1.64;100.00;100920.22;5039419;28;20063;-77
2021/12/23 05:57:08;;;;;;;64.13;25.27;;;;;;;-2.68;100.00;100769.31;5023295;28;20026;-78
2021/12/23 05:59:37;;;;;;;72.43;26.55;;;;;;;-2.64;100.00;100737.31;5006081;28;20026;-76
2021/12/23 06:02:06;;;;;;;70.40;25.48;;;;;;;-2.71;100.00;100797.88;5004952;28;20026;-76
2021/12/23 06:04:34;;;;;;;66.22;25.38;;;;;;;-2.46;100.00;100803.09;5047603;23;20047;-76
2021/12/23 06:07:00;;;;;;;75.40;28.15;;;;;;;-1.68;100.00;100906.56;5067043;28;20047;-77
2021/12/23 06:09:27;;;;;;;78.85;26.90;;;;;;;-1.78;100.00;100918.09;5013998;28;20025;-75
2021/12/23 06:11:52;;;;;;;71.35;26.40;;;;;;;-2.59;100.00;100782.81;5048278;28;20040;-75
2021/12/23 06:14:19;;;;;;;67.22;26.65;;;;;;;-1.92;100.00;100939.28;5038231;28;20074;-75
2021/12/23 06:16:45;;;;;;;73.82;26.08;;;;;;;-2.46;100.00;100816.84;5020306;28;20036;-76
2021/12/23 06:19:11;;;;;;;71.35;24.95;;;;;;;-2.28;100.00;100867.13;5037947;28;20174;-76
2021/12/23 06:21:36;;;;;;;72.88;26.42;;;;;;;-2.91;100.00;100726.97;5022910;28;20025;-76
2021/12/23 06:24:03;;;;;;;72.88;25.55;;;;;;;-2.75;100.00;100797.09;5022962;28;20029;-76
2021/12/23 06:26:31;;;;;;;72.07;25.98;;;;;;;-2.88;100.00;100777.72;5057388;28;20100;-76
2021/12/23 06:28:58;;;;;;;72.30;25.88;;;;;;;-2.19;100.00;100915.13;5031856;28;20022;-76
2021/12/23 06:31:24;;;;;;;72.72;26.92;;;;;;;-1.86;100.00;100908.03;5035853;28;20017;-76
2021/12/23 06:33:52;;;;;;;70.32;26.10;;;;;;;-2.87;100.00;100738.91;5057278;28;20059;-76
2021/12/23 06:36:18;;;;;;;76.07;26.17;;;;;;;-1.81;100.00;100925.97;5041954;28;20033;-77
2021/12/23 06:38:45;;;;;;;97.80;34.45;;;;;;;-2.49;100.00;100804.03;5023321;28;20512;-78
2021/12/23 06:41:12;;;;;;;78.68;25.83;;;;;;;-2.63;100.00;100782.97;5037562;28;20024;-76
2021/12/23 06:43:41;;;;;;;77.65;26.85;;;;;;;-2.23;100.00;100843.69;5030858;28;20089;-78
2021/12/23 06:46:09;;;;;;;85.85;28.40;;;;;;;-2.16;100.00;100910.72;5041343;28;20017;-76
2021/12/23 06:48:36;;;;;;;80.15;26.77;;;;;;;-2.61;100.00;100828.56;5046835;28;20021;-76
2021/12/23 06:51:02;;;;;;;80.90;26.95;;;;;;;-2.88;100.00;100759.63;5034463;28;20029;-76
2021/12/23 06:53:28;;;;;;;80.10;26.83;;;;;;;-2.28;100.00;100817.16;5025128;28;20037;-76
2021/12/23 06:55:55;;;;;;;84.50;28.17;;;;;;;-2.83;100.00;100752.59;5030777;28;20067;-76
2021/12/23 06:58:22;;;;;;;74.95;25.65;;;;;;;-2.49;100.00;100765.25;5021587;28;20422;-78
2021/12/23 07:00:49;;;;;;;76.45;25.67;;;;;;;-1.90;100.00;100847.72;5022391;28;20029;-78
2021/12/23 07:03:15;;;;;;;80.35;26.15;;;;;;;-1.96;100.00;100858.28;5037200;28;20029;-78
2021/12/23 07:05:42;;;;;;;79.50;26.00;;;;;;;-2.08;100.00;100843.19;5018569;28;20422;-77
2021/12/23 07:08:11;;;;;;;84.95;27.05;;;;;;;-2.43;100.00;100728.84;5002976;28;20026;-76
2021/12/23 07:10:38;;;;;;;79.70;26.77;;;;;;;-2.06;100.00;100831.06;5029182;28;20037;-77
2021/12/23 07:13:05;;;;;;;80.45;27.15;;;;;;;-3.04;100.00;100635.28;5028472;28;20167;-76
2021/12/23 07:15:33;;;;;;;84.72;27.00;;;;;;;-2.39;100.00;100698.53;5023471;28;20073;-76
2021/12/23 07:18:00;;;;;;;181.65;62.58;;;;;;;-1.89;100.00;100758.81;5041826;28;20468;-76
2021/12/23 07:20:27;;;;;;;83.63;28.52;;;;;;;-2.45;100.00;100659.94;5036946;28;20430;-76
2021/12/23 07:22:54;;;;;;;103.25;33.92;;;;;;;-2.25;100.00;100786.84;5051368;28;20033;-75
2021/12/23 07:25:19;;;;;;;82.38;27.65;;;;;;;-2.08;100.00;100697.47;5034467;28;20040;-75
2021/12/23 07:27:50;;;;;;;77.40;25.88;;;;;;;-1.63;100.00;100788.13;5059368;28;20021;-77
2021/12/23 07:30:20;;;;;;;77.43;27.38;;;;;;;-1.74;100.00;100835.09;5057420;28;20029;-76
2021/12/23 07:32:50;;;;;;;76.50;26.23;;;;;;;-1.74;100.00;100844.63;5040474;28;20040;-77
2021/12/23 07:35:18;;;;;;;81.28;27.08;;;;;;;-1.60;100.00;100815.66;5038431;28;20029;-75
2021/12/23 07:37:48;;;;;;;93.63;31.02;;;;;;;-1.58;100.00;100861.28;5054296;28;20112;-77
2021/12/23 07:40:16;;;;;;;85.28;28.27;;;;;;;-2.59;100.00;100722.47;5035611;28;20033;-77
2021/12/23 07:45:44;;;;;;;80.88;26.25;;;;;;;-1.98;100.00;100738.44;5018253;28;20069;-76
2021/12/23 07:48:10;;;;;;;77.05;27.17;;;;;;;-2.15;100.00;100707.19;4998297;28;20101;-76
2021/12/23 07:50:37;;;;;;;95.70;31.67;;;;;;;-1.69;100.00;100838.38;4983608;28;20060;-75
2021/12/23 07:53:02;;;;;;;94.53;29.83;;;;;;;-2.27;100.00;100791.25;5004906;28;20040;-76
2021/12/23 07:55:28;;;;;;;86.15;28.45;;;;;;;-1.75;100.00;100824.78;5013604;28;20102;-76
2021/12/23 07:57:54;;;;;;;90.60;28.10;;;;;;;-1.83;100.00;100821.66;5014825;28;20415;-76
2021/12/23 08:00:21;;;;;;;84.60;27.60;;;;;;;-2.39;100.00;100747.66;4979857;28;20030;-73
2021/12/23 08:02:47;;;;;;;84.63;28.05;;;;;;;-1.77;100.00;100811.91;5011681;28;20096;-74
2021/12/23 08:05:12;;;;;;;83.95;27.73;;;;;;;-2.39;100.00;100755.44;5014213;28;20054;-73
2021/12/23 08:07:38;;;;;;;90.53;29.67;;;;;;;-2.69;100.00;100728.88;5000245;28;20038;-74
2021/12/23 08:10:06;;;;;;;87.10;28.10;;;;;;;-1.84;100.00;100820.81;5000520;28;20850;-75
2021/12/23 08:12:31;;;;;;;86.68;27.80;;;;;;;-1.81;100.00;100784.44;5016600;28;20021;-74
2021/12/23 08:15:00;;;;;;;86.43;27.90;;;;;;;-1.33;100.00;100783.53;5002439;28;20033;-74
2021/12/23 08:17:26;;;;;;;97.60;28.80;;;;;;;-1.91;100.00;100749.44;5023942;28;20108;-76
2021/12/23 08:19:54;;;;;;;83.82;26.83;;;;;;;-2.05;100.00;100702.50;5015357;28;20034;-74
2021/12/23 08:22:22;;;;;;;84.93;26.73;;;;;;;-1.76;100.00;100722.16;5038364;28;20044;-75
2021/12/23 08:24:48;;;;;;;86.95;27.77;;;;;;;-2.38;100.00;100715.75;5021054;28;20029;-74
2021/12/23 08:27:14;;;;;;;90.88;29.48;;;;;;;-2.08;100.00;100757.81;5052815;28;20028;-74
2021/12/23 08:29:39;;;;;;;87.00;27.23;;;;;;;-2.33;100.00;100690.56;5057775;28;20416;-77
2021/12/23 08:32:06;;;;;;;89.13;28.80;;;;;;;-2.15;100.00;100733.91;5041144;28;20104;-76
2021/12/23 08:34:34;;;;;;;92.93;29.35;;;;;;;-1.47;100.00;100797.00;5047112;28;20489;-75
2021/12/23 08:37:01;;;;;;;92.43;28.45;;;;;;;-1.55;100.00;100707.56;5041094;28;20108;-76
2021/12/23 08:39:27;;;;;;;81.32;27.08;;;;;;;-2.12;100.00;100725.16;5053723;28;20016;-74
2021/12/23 08:41:53;;;;;;;83.05;27.23;;;;;;;-2.34;100.00;100665.59;5042753;28;20032;-75
2021/12/23 08:44:19;;;;;;;87.20;29.15;;;;;;;-1.81;100.00;100731.84;5050078;28;20049;-75
2021/12/23 08:46:44;;;;;;;138.25;46.10;;;;;;;-2.44;100.00;100638.38;5039463;28;20021;-76
2021/12/23 08:49:10;;;;;;;92.57;31.15;;;;;;;-1.41;100.00;100770.03;5053339;28;20028;-76
2021/12/23 08:51:37;;;;;;;87.43;25.98;;;;;;;-1.31;100.00;100779.16;5059990;28;20029;-75
2021/12/23 08:54:04;;;;;;;80.03;26.17;;;;;;;-1.47;100.00;100692.56;5024541;28;20021;-75
2021/12/23 08:56:30;;;;;;;79.90;25.73;;;;;;;-1.63;100.00;100730.31;5059870;28;20028;-75
2021/12/23 08:58:56;;;;;;;85.15;27.02;;;;;;;-1.48;100.00;100717.63;5059533;28;20374;-74
2021/12/23 09:01:23;;;;;;;79.50;26.55;;;;;;;-2.25;100.00;100537.69;5054387;28;20036;-74
2021/12/23 09:03:52;;;;;;;78.32;26.05;;;;;;;-1.32;100.00;100737.75;5034228;28;20068;-74
2021/12/23 09:06:18;;;;;;;77.15;25.52;;;;;;;-2.26;100.00;100648.06;5025129;28;20080;-75
2021/12/23 09:08:44;;;;;;;94.60;32.13;;;;;;;-2.40;100.00;100591.66;5040930;28;20379;-75
2021/12/23 09:11:10;;;;;;;82.25;27.23;;;;;;;-1.55;100.00;100707.56;5041133;28;20035;-75
2021/12/23 09:13:35;;;;;;;77.78;26.20;;;;;;;-2.27;100.00;100594.66;5056734;28;20055;-77
2021/12/23 09:16:02;;;;;;;80.70;25.50;;;;;;;-1.54;100.00;100699.72;5056361;28;20032;-75
2021/12/23 09:18:27;;;;;;;80.53;27.80;;;;;;;-1.52;100.00;100651.31;5058012;28;20044;-75
2021/12/23 09:20:57;;;;;;;76.90;25.85;;;;;;;-1.67;100.00;100646.72;5060001;28;20037;-76
2021/12/23 09:23:23;;;;;;;71.07;25.02;;;;;;;-1.60;100.00;100605.91;5057847;28;20032;-76
2021/12/23 09:25:50;;;;;;;73.97;26.38;;;;;;;-1.83;100.00;100633.53;5038027;28;20025;-75
2021/12/23 09:28:27;;;;;;;79.03;25.95;;;;;;;-1.43;100.00;100654.44;5046145;28;20025;-75
2021/12/23 09:33:40;;;;;;;117.13;33.58;;;;;;;-2.17;100.00;100551.19;5046573;28;20029;-74
2021/12/23 09:36:10;;;;;;;201.07;50.97;;;;;;;-1.46;100.00;100626.91;5028104;28;20028;-75
2021/12/23 09:38:36;;;;;;;87.70;27.23;;;;;;;-2.08;100.00;100581.88;5048184;28;20021;-76
2021/12/23 09:41:14;;;;;;;75.72;25.38;;;;;;;-1.34;100.00;100634.22;5048216;28;20049;-75
2021/12/23 09:43:42;;;;;;;77.38;25.85;;;;;;;-2.29;100.00;100521.47;5039293;28;20036;-74
2021/12/23 09:46:15;;;;;;;71.97;24.50;;;;;;;-1.78;100.00;100597.94;5038611;28;20089;-75
2021/12/23 09:48:43;;;;;;;75.78;24.45;;;;;;;-2.38;100.00;100564.00;5034012;28;20034;-76
2021/12/23 09:51:12;;;;;;;74.93;24.52;;;;;;;-2.09;100.00;100600.88;5024212;28;20100;-76
2021/12/23 09:53:41;;;;;;;79.38;25.52;;;;;;;-1.49;100.00;100689.19;5022071;28;20033;-78
2021/12/23 09:56:10;;;;;;;77.30;24.23;;;;;;;-1.51;100.00;100685.81;5040054;28;20415;-77
2021/12/23 09:58:37;;;;;;;78.65;24.73;;;;;;;-1.91;100.00;100633.84;5039232;28;20045;-77
2021/12/23 10:01:14;;;;;;;75.68;24.63;;;;;;;-2.49;100.00;100557.56;5044579;28;20025;-77
2021/12/23 10:03:40;;;;;;;79.53;26.33;;;;;;;-2.16;100.00;100594.25;5062783;28;20091;-77
2021/12/23 10:06:09;;;;;;;76.40;25.63;;;;;;;-1.97;100.00;100571.94;5027857;28;20092;-78
2021/12/23 10:08:39;;;;;;;89.50;28.08;;;;;;;-1.79;100.00;100635.09;5041305;28;20032;-75
2021/12/23 10:30:34;;;;;;;77.35;25.17;;;;;;;-1.16;100.00;100603.25;5055802;28;20041;-78
2021/12/23 10:38:43;;;;;;;85.50;27.90;;;;;;;-1.97;100.00;100537.47;5055268;28;20029;-77
2021/12/23 10:41:18;;;;;;;73.22;23.92;;;;;;;-2.30;100.00;100475.78;5046788;28;20086;-77
2021/12/23 10:43:53;;;;;;;80.78;24.35;;;;;;;-1.62;100.00;100523.09;5048213;28;20025;-79
2021/12/23 10:46:24;;;;;;;68.88;24.17;;;;;;;-1.60;100.00;100575.66;5052417;28;20068;-74
2021/12/23 10:52:07;;;;;;;73.05;23.90;;;;;;;-2.37;100.00;100451.06;5067179;28;20031;-75
2021/12/23 11:00:35;;;;;;;73.47;23.92;;;;;;;-1.36;100.00;100611.84;5081438;28;21425;-76
2021/12/23 11:03:18;;;;;;;72.00;24.30;;;;;;;-2.12;100.00;100495.75;5043379;28;20056;-77
2021/12/23 11:06:25;;;;;;;69.47;23.73;;;;;;;-1.82;100.00;100523.06;5048518;28;20042;-78
2021/12/23 11:09:16;;;;;;;71.43;24.05;;;;;;;-1.92;100.00;100476.03;5024565;28;20116;-77
2021/12/23 11:12:11;;;;;;;73.80;23.90;;;;;;;-1.56;100.00;100514.25;5029604;28;20022;-77
2021/12/23 11:41:52;;;;;;;67.25;23.23;;;;;;;-0.56;100.00;100491.78;5030963;28;20029;-76
2021/12/23 11:44:21;;;;;;;62.95;22.58;;;;;;;-0.62;100.00;100495.47;5008084;28;20025;-79
2021/12/23 11:46:54;;;;;;;67.43;23.27;;;;;;;-0.29;100.00;100537.22;5042640;28;20021;-75
2021/12/23 11:49:22;;;;;;;62.78;22.60;;;;;;;-0.55;100.00;100464.94;5024461;28;20029;-76
2021/12/23 11:51:56;;;;;;;65.28;22.85;;;;;;;0.03;100.00;100524.47;5023825;28;20468;-76
2021/12/23 11:54:28;;;;;;;60.83;21.30;;;;;;;-0.10;100.00;100507.81;5024642;28;20030;-77
2021/12/23 11:57:16;;;;;;;73.57;24.58;;;;;;;-0.07;100.00;100466.13;5008120;28;20086;-77
2021/12/23 11:59:46;;;;;;;65.88;22.23;;;;;;;-0.14;100.00;100418.84;5027719;28;20534;-76
2021/12/23 12:02:17;;;;;;;62.75;21.92;;;;;;;-0.41;100.00;100345.78;5022121;28;20590;-77
2021/12/23 12:04:43;;;;;;;60.30;21.00;;;;;;;0.32;100.00;100446.91;5038415;28;20519;-74
2021/12/23 12:07:27;;;;;;;59.67;21.67;;;;;;;0.54;100.00;100483.88;5035392;28;20033;-72
2021/12/23 12:10:01;;;;;;;62.17;22.52;;;;;;;0.85;100.00;100453.72;4990415;28;20057;-73
2021/12/23 12:12:29;;;;;;;56.08;21.33;;;;;;;0.14;100.00;100356.03;5039499;28;20182;-74
2021/12/23 12:14:56;;;;;;;56.90;22.08;;;;;;;0.51;100.00;100450.25;5028634;28;20032;-72
2021/12/23 12:20:07;;;;;;;63.60;21.45;;;;;;;0.46;100.00;100382.13;5045842;28;20514;-74
2021/12/23 12:22:58;;;;;;;65.63;22.23;;;;;;;0.55;100.00;100360.03;5035905;28;20487;-73
2021/12/23 12:25:24;;;;;;;62.50;21.58;;;;;;;0.77;100.00;100437.69;5034009;28;20495;-73